createdAt,value
2022-12-08T00:01:06.058Z,101026.09
2022-12-08T00:03:34.246Z,101024.16
2022-12-08T00:06:21.331Z,101019.13
2022-12-08T00:09:03.116Z,101014.88
2022-12-08T00:11:30.842Z,101013.75
2022-12-08T00:14:00.096Z,101005.69
2022-12-08T00:16:27.931Z,101003.38
2022-12-08T00:18:55.748Z,100992.56
2022-12-08T00:21:23.528Z,100995.59
2022-12-08T00:23:51.293Z,100997.16
2022-12-08T00:26:19.022Z,100999.09
2022-12-08T00:28:47.210Z,101003.28
2022-12-08T00:31:16.528Z,100994.75
2022-12-08T00:33:44.344Z,100984.38
2022-12-08T00:36:15.173Z,100988.59
2022-12-08T00:38:44.691Z,100974.75
2022-12-08T00:41:15.063Z,100977.44
2022-12-08T00:43:43.338Z,100974.72
2022-12-08T00:46:12.042Z,100969.72
2022-12-08T00:48:41.381Z,100947.81
2022-12-08T00:51:09.151Z,100953.97
2022-12-08T00:53:36.894Z,100959.38
2022-12-08T00:56:04.718Z,100955.56
2022-12-08T00:58:32.449Z,100947.09
2022-12-08T01:01:00.175Z,100950.94
2022-12-08T01:03:28.043Z,100944.00
2022-12-08T01:05:57.168Z,100942.50
2022-12-08T01:08:25.031Z,100943.66
2022-12-08T01:10:53.007Z,100934.44
2022-12-08T01:13:20.736Z,100928.66
2022-12-08T01:15:48.563Z,100926.72
2022-12-08T01:18:16.398Z,100937.88
2022-12-08T01:20:44.193Z,100940.56
2022-12-08T01:23:14.105Z,100938.97
2022-12-08T01:25:41.885Z,100947.84
2022-12-08T01:28:09.635Z,100935.47
2022-12-08T01:30:39.367Z,100933.13
2022-12-08T01:33:07.521Z,100927.44
2022-12-08T01:35:35.602Z,100929.75
2022-12-08T01:38:03.403Z,100921.66
2022-12-08T01:40:32.568Z,100942.06
2022-12-08T01:43:00.346Z,100939.34
2022-12-08T01:45:29.718Z,100946.63
2022-12-08T01:48:00.946Z,100940.47
2022-12-08T01:50:29.312Z,100941.59
2022-12-08T01:53:00.480Z,100933.09
2022-12-08T01:55:37.993Z,100936.19
2022-12-08T01:58:13.308Z,100923.09
2022-12-08T02:00:41.072Z,100924.66
2022-12-08T02:03:14.294Z,100928.56
2022-12-08T02:05:42.920Z,100915.91
2022-12-08T02:08:12.548Z,100927.84
2022-12-08T02:10:43.513Z,100920.22
2022-12-08T02:13:14.494Z,100916.00
2022-12-08T02:15:58.408Z,100917.50
2022-12-08T02:18:43.561Z,100904.47
2022-12-08T02:21:17.744Z,100903.72
2022-12-08T02:23:55.108Z,100901.38
2022-12-08T02:26:39.463Z,100896.78
2022-12-08T02:29:36.235Z,100892.94
2022-12-08T02:32:22.013Z,100880.94
2022-12-08T02:34:58.648Z,100884.47
2022-12-08T02:37:30.763Z,100879.84
2022-12-08T02:40:04.679Z,100887.16
2022-12-08T02:42:39.752Z,100879.84
2022-12-08T02:45:13.526Z,100870.94
2022-12-08T02:47:42.011Z,100873.97
2022-12-08T02:50:11.937Z,100872.50
2022-12-08T02:52:44.548Z,100864.75
2022-12-08T02:55:19.555Z,100859.72
2022-12-08T02:57:57.649Z,100854.31
2022-12-08T03:00:28.334Z,100848.56
2022-12-08T03:03:08.683Z,100851.63
2022-12-08T03:05:57.249Z,100843.13
2022-12-08T03:08:32.263Z,100840.03
2022-12-08T03:11:04.896Z,100844.25
2022-12-08T03:13:39.635Z,100839.97
2022-12-08T03:16:10.907Z,100837.63
2022-12-08T03:18:44.253Z,100841.09
2022-12-08T03:21:15.437Z,100833.75
2022-12-08T03:23:45.949Z,100836.41
2022-12-08T03:26:19.791Z,100841.00
2022-12-08T03:28:48.092Z,100835.19
2022-12-08T03:31:18.669Z,100835.56
2022-12-08T03:33:52.722Z,100835.91
2022-12-08T03:36:21.847Z,100831.63
2022-12-08T03:38:53.812Z,100827.38
2022-12-08T03:41:23.437Z,100826.22
2022-12-08T03:43:52.102Z,100829.28
2022-12-08T03:48:51.765Z,100818.50
2022-12-08T03:51:21.006Z,100809.59
2022-12-08T03:53:49.015Z,100799.63
2022-12-08T03:56:20.999Z,100799.69
2022-12-08T03:58:48.730Z,100805.91
2022-12-08T04:01:16.546Z,100791.66
2022-12-08T04:03:44.317Z,100790.53
2022-12-08T04:06:12.092Z,100795.56
2022-12-08T04:08:41.398Z,100809.06
2022-12-08T04:11:09.765Z,100805.19
2022-12-08T04:13:39.780Z,100797.44
2022-12-08T04:16:08.603Z,100798.91
2022-12-08T04:18:36.863Z,100795.81
2022-12-08T04:21:04.807Z,100797.41
2022-12-08T04:23:32.551Z,100796.28
2022-12-08T04:26:01.666Z,100787.00
2022-12-08T04:28:29.650Z,100786.59
2022-12-08T04:30:57.458Z,100770.53
2022-12-08T04:33:25.455Z,100781.34
2022-12-08T04:35:53.219Z,100791.00
2022-12-08T04:38:20.951Z,100780.97
2022-12-08T04:40:48.722Z,100771.28
2022-12-08T04:43:18.915Z,100768.13
2022-12-08T04:45:47.488Z,100765.41
2022-12-08T04:48:15.591Z,100767.72
2022-12-08T04:50:45.472Z,100776.56
2022-12-08T04:53:14.351Z,100777.41
2022-12-08T04:55:43.823Z,100768.47
2022-12-08T04:58:14.124Z,100772.72
2022-12-08T05:00:43.902Z,100764.63
2022-12-08T05:03:11.974Z,100777.28
2022-12-08T05:05:39.949Z,100770.34
2022-12-08T05:08:07.806Z,100765.00
2022-12-08T05:10:35.688Z,100769.28
2022-12-08T05:13:03.445Z,100764.31
2022-12-08T05:15:31.268Z,100768.19
2022-12-08T05:18:00.363Z,100763.53
2022-12-08T05:20:28.540Z,100770.44
2022-12-08T05:22:56.238Z,100768.19
2022-12-08T05:25:24.045Z,100774.69
2022-12-08T05:27:55.285Z,100767.34
2022-12-08T05:30:29.661Z,100772.72
2022-12-08T05:32:57.392Z,100769.19
2022-12-08T05:35:26.471Z,100768.75
2022-12-08T05:37:54.270Z,100764.50
2022-12-08T05:40:22.021Z,100767.59
2022-12-08T05:42:49.776Z,100761.00
2022-12-08T05:45:17.551Z,100758.75
2022-12-08T05:47:45.420Z,100754.94
2022-12-08T05:50:13.270Z,100751.13
2022-12-08T05:52:42.489Z,100758.03
2022-12-08T05:55:11.384Z,100752.22
2022-12-08T05:57:39.124Z,100754.94
2022-12-08T06:00:08.363Z,100753.00
2022-12-08T06:02:39.577Z,100753.00
2022-12-08T06:05:08.495Z,100751.88
2022-12-08T06:07:36.613Z,100748.06
2022-12-08T06:10:07.713Z,100745.38
2022-12-08T06:12:35.575Z,100751.50
2022-12-08T06:15:03.404Z,100749.22
2022-12-08T06:17:31.151Z,100745.75
2022-12-08T06:19:58.918Z,100750.03
2022-12-08T06:22:26.791Z,100739.66
2022-12-08T06:24:54.548Z,100738.94
2022-12-08T06:27:23.640Z,100747.03
2022-12-08T06:29:51.415Z,100740.88
2022-12-08T06:32:24.323Z,100741.72
2022-12-08T06:34:54.975Z,100747.94
2022-12-08T06:37:22.696Z,100743.69
2022-12-08T06:39:50.627Z,100753.44
2022-12-08T06:42:35.784Z,100745.38
2022-12-08T06:45:05.578Z,100753.84
2022-12-08T06:47:33.381Z,100757.66
2022-12-08T06:50:01.576Z,100757.66
2022-12-08T06:52:29.491Z,100754.94
2022-12-08T06:54:57.253Z,100748.84
2022-12-08T06:57:25.717Z,100755.41
2022-12-08T06:59:53.468Z,100758.59
2022-12-08T07:02:22.572Z,100757.03
2022-12-08T07:04:50.365Z,100753.97
2022-12-08T07:07:18.171Z,100751.75
2022-12-08T07:09:45.899Z,100748.69
2022-12-08T07:12:13.699Z,100755.31
2022-12-08T07:14:41.469Z,100753.06
2022-12-08T07:17:09.277Z,100749.28
2022-12-08T07:19:38.409Z,100752.91
2022-12-08T07:22:06.257Z,100746.69
2022-12-08T07:24:34.059Z,100750.94
2022-12-08T07:27:01.866Z,100748.63
2022-12-08T07:29:29.620Z,100757.91
2022-12-08T07:31:57.403Z,100751.38
2022-12-08T07:34:25.403Z,100740.34
2022-12-08T07:36:54.475Z,100735.69
2022-12-08T07:39:23.053Z,100747.25
2022-12-08T07:41:51.045Z,100751.06
2022-12-08T07:44:18.788Z,100753.72
2022-12-08T07:46:46.959Z,100751.03
2022-12-08T07:49:14.736Z,100749.47
2022-12-08T07:51:42.494Z,100744.59
2022-12-08T07:54:13.343Z,100743.44
2022-12-08T07:56:41.091Z,100742.31
2022-12-08T07:59:08.808Z,100748.81
2022-12-08T08:01:36.801Z,100751.16
2022-12-08T08:04:06.289Z,100750.00
2022-12-08T08:06:36.272Z,100752.69
2022-12-08T08:09:04.059Z,100750.00
2022-12-08T08:11:33.157Z,100750.75
2022-12-08T08:14:00.948Z,100750.38
2022-12-08T08:16:32.238Z,100747.34
2022-12-08T08:19:04.396Z,100753.09
2022-12-08T08:21:47.414Z,100752.34
2022-12-08T08:24:15.196Z,100758.78
2022-12-08T08:26:44.271Z,100756.88
2022-12-08T08:29:12.085Z,100757.28
2022-12-08T08:31:40.831Z,100765.72
2022-12-08T08:34:09.119Z,100761.16
2022-12-08T08:36:37.068Z,100772.22
2022-12-08T08:39:05.443Z,100768.31
2022-12-08T08:41:33.411Z,100773.66
2022-12-08T08:44:02.818Z,100769.41
2022-12-08T08:46:30.644Z,100776.69
2022-12-08T08:48:58.551Z,100769.75
2022-12-08T08:51:26.373Z,100773.66
2022-12-08T08:53:54.107Z,100775.50
2022-12-08T08:56:24.214Z,100776.25
2022-12-08T08:58:53.682Z,100773.63
2022-12-08T09:01:25.110Z,100768.63
2022-12-08T09:03:53.421Z,100775.19
2022-12-08T09:06:21.834Z,100767.09
2022-12-08T09:08:50.179Z,100766.00
2022-12-08T09:11:18.981Z,100768.31
2022-12-08T09:13:48.861Z,100757.53
2022-12-08T09:16:17.256Z,100771.41
2022-12-08T09:18:47.284Z,100757.94
2022-12-08T09:21:20.305Z,100755.94
2022-12-08T09:23:48.094Z,100769.00
2022-12-08T09:26:17.077Z,100761.66
2022-12-08T09:28:46.634Z,100751.66
2022-12-08T09:31:14.901Z,100764.72
2022-12-08T09:33:43.108Z,100757.38
2022-12-08T09:36:12.780Z,100760.91
2022-12-08T09:38:41.549Z,100757.91
2022-12-08T09:41:17.449Z,100756.72
2022-12-08T09:44:01.831Z,100757.44
2022-12-08T09:46:33.406Z,100762.38
2022-12-08T09:49:03.167Z,100761.16
2022-12-08T09:51:41.582Z,100768.75
2022-12-08T09:54:16.940Z,100767.09
2022-12-08T09:56:44.983Z,100775.88
2022-12-08T09:59:23.689Z,100771.53
2022-12-08T10:01:52.688Z,100777.63
2022-12-08T10:04:24.987Z,100772.56
2022-12-08T10:07:04.756Z,100763.22
2022-12-08T10:09:41.087Z,100761.31
2022-12-08T10:12:17.427Z,100762.81
2022-12-08T10:14:48.315Z,100767.41
2022-12-08T10:17:21.971Z,100770.41
2022-12-08T10:19:50.496Z,100758.78
2022-12-08T10:22:23.191Z,100765.72
2022-12-08T10:25:01.077Z,100757.97
2022-12-08T10:27:29.152Z,100755.56
2022-12-08T10:29:56.833Z,100750.88
2022-12-08T10:32:29.131Z,100759.34
2022-12-08T10:35:02.890Z,100755.38
2022-12-08T10:37:32.035Z,100749.94
2022-12-08T10:40:01.564Z,100751.88
2022-12-08T10:42:36.357Z,100737.59
2022-12-08T10:45:21.254Z,100747.63
2022-12-08T10:47:58.336Z,100741.44
2022-12-08T10:50:31.965Z,100742.94
2022-12-08T10:53:02.762Z,100744.53
2022-12-08T10:55:40.191Z,100734.56
2022-12-08T10:58:25.363Z,100741.13
2022-12-08T11:00:55.586Z,100744.25
2022-12-08T11:03:29.164Z,100742.00
2022-12-08T11:06:02.739Z,100745.59
2022-12-08T11:08:34.855Z,100739.00
2022-12-08T11:11:02.676Z,100742.47
2022-12-08T11:13:30.520Z,100744.47
2022-12-08T11:15:58.705Z,100739.13
2022-12-08T11:18:29.975Z,100743.09
2022-12-08T11:21:01.757Z,100742.81
2022-12-08T11:23:31.327Z,100741.41
2022-12-08T11:26:06.723Z,100736.03
2022-12-08T11:28:34.458Z,100738.28
2022-12-08T11:31:08.078Z,100726.00
2022-12-08T11:33:35.902Z,100723.03
2022-12-08T11:36:07.251Z,100713.22
2022-12-08T11:38:40.851Z,100698.25
2022-12-08T11:41:16.403Z,100700.25
2022-12-08T11:43:50.307Z,100700.41
2022-12-08T11:46:22.341Z,100698.16
2022-12-08T11:48:54.996Z,100689.66
2022-12-08T11:51:31.399Z,100698.84
2022-12-08T11:54:12.412Z,100693.94
2022-12-08T11:56:45.664Z,100688.16
2022-12-08T11:59:20.579Z,100680.81
2022-12-08T12:01:48.429Z,100678.88
2022-12-08T12:04:24.847Z,100678.06
2022-12-08T12:07:26.358Z,100681.28
2022-12-08T12:10:10.675Z,100668.25
2022-12-08T12:12:55.268Z,100673.13
2022-12-08T12:16:04.917Z,100662.66
2022-12-08T12:18:38.760Z,100674.47
2022-12-08T12:21:12.094Z,100666.31
2022-12-08T12:23:44.220Z,100674.28
2022-12-08T12:26:20.603Z,100666.44
2022-12-08T12:28:54.383Z,100659.41
2022-12-08T12:31:26.117Z,100663.16
2022-12-08T12:33:58.255Z,100662.25
2022-12-08T12:36:26.735Z,100658.56
2022-12-08T12:39:02.141Z,100660.84
2022-12-08T12:41:36.515Z,100660.84
2022-12-08T12:44:26.760Z,100653.59
2022-12-08T12:46:59.958Z,100652.69
2022-12-08T12:49:50.845Z,100647.97
2022-12-08T12:52:37.848Z,100649.31
2022-12-08T12:55:23.790Z,100654.66
2022-12-08T12:57:53.495Z,100655.34
2022-12-08T13:00:24.084Z,100649.38
2022-12-08T13:02:53.575Z,100654.38
2022-12-08T13:05:24.863Z,100653.00
2022-12-08T13:07:56.219Z,100651.16
2022-12-08T13:10:26.594Z,100656.50
2022-12-08T13:13:07.744Z,100646.66
2022-12-08T13:15:39.416Z,100654.66
2022-12-08T13:18:08.589Z,100641.50
2022-12-08T13:20:43.761Z,100643.34
2022-12-08T13:23:27.977Z,100635.59
2022-12-08T13:26:15.138Z,100645.00
2022-12-08T13:29:08.599Z,100646.91
2022-12-08T13:31:48.376Z,100641.22
2022-12-08T13:34:21.868Z,100641.91
2022-12-08T13:37:18.799Z,100627.56
2022-12-08T13:39:52.833Z,100624.19
2022-12-08T13:42:26.040Z,100626.09
2022-12-08T13:48:21.619Z,100628.69
2022-12-08T13:57:03.968Z,100636.38
2022-12-08T13:59:30.296Z,100629.66
2022-12-08T14:02:02.140Z,100626.09
2022-12-08T14:04:47.893Z,100635.09
2022-12-08T14:07:20.097Z,100640.13
2022-12-08T14:09:47.995Z,100639.88
2022-12-08T14:12:20.728Z,100644.22
2022-12-08T14:15:03.081Z,100637.97
2022-12-08T14:17:31.578Z,100637.38
2022-12-08T14:20:02.902Z,100639.41
2022-12-08T14:22:35.360Z,100644.22
2022-12-08T14:25:03.872Z,100639.25
2022-12-08T14:27:35.774Z,100642.19
2022-12-08T14:30:07.361Z,100648.44
2022-12-08T14:32:40.060Z,100641.84
2022-12-08T14:35:25.566Z,100644.31
2022-12-08T14:37:56.862Z,100643.56
2022-12-08T14:40:25.749Z,100651.34
2022-12-08T14:43:06.135Z,100649.28
2022-12-08T14:45:35.081Z,100649.72
2022-12-08T14:48:25.437Z,100645.66
2022-12-08T14:51:05.256Z,100641.84
2022-12-08T14:53:40.656Z,100643.38
2022-12-08T14:56:15.469Z,100640.13
2022-12-08T14:58:43.356Z,100636.13
2022-12-08T15:01:13.836Z,100642.50
2022-12-08T15:03:44.670Z,100634.84
2022-12-08T15:06:22.948Z,100628.88
2022-12-08T15:08:58.755Z,100626.03
2022-12-08T15:11:33.036Z,100635.06
2022-12-08T15:14:01.089Z,100629.94
2022-12-08T15:16:32.931Z,100627.31
2022-12-08T15:19:10.771Z,100633.31
2022-12-08T15:21:44.641Z,100636.44
2022-12-08T15:24:14.037Z,100626.88
2022-12-08T15:26:44.907Z,100628.09
2022-12-08T15:29:17.695Z,100625.53
2022-12-08T15:31:45.480Z,100624.06
2022-12-08T15:34:13.256Z,100629.97
2022-12-08T15:36:42.903Z,100623.09
2022-12-08T15:39:22.195Z,100623.94
2022-12-08T15:41:49.940Z,100623.94
2022-12-08T15:44:17.721Z,100630.47
2022-12-08T15:46:45.578Z,100630.13
2022-12-08T15:49:18.440Z,100637.06
2022-12-08T15:51:46.681Z,100631.59
2022-12-08T15:54:15.864Z,100636.19
2022-12-08T15:57:17.496Z,100642.25
2022-12-08T15:59:35.226Z,100633.75
2022-12-08T16:02:03.083Z,100632.53
2022-12-08T16:05:18.245Z,100635.59
2022-12-08T16:07:24.350Z,100631.41
2022-12-08T16:09:54.236Z,100628.50
2022-12-08T16:13:48.125Z,100635.84
2022-12-08T16:18:24.174Z,100638.41
2022-12-08T16:21:16.920Z,100634.66
2022-12-08T16:23:44.635Z,100634.75
2022-12-08T16:26:28.641Z,100635.63
2022-12-08T16:29:04.938Z,100636.09
2022-12-08T16:31:33.354Z,100628.00
2022-12-08T16:34:01.444Z,100622.25
2022-12-08T16:36:29.268Z,100620.78
2022-12-08T16:38:57.067Z,100613.94
2022-12-08T16:41:43.618Z,100621.88
2022-12-08T16:44:11.383Z,100620.34
2022-12-08T16:46:39.207Z,100612.31
2022-12-08T16:49:09.706Z,100622.63
2022-12-08T16:51:37.608Z,100620.75
2022-12-08T16:54:05.665Z,100618.97
2022-12-08T16:56:34.832Z,100609.34
2022-12-08T16:59:02.814Z,100616.66
2022-12-08T17:01:30.720Z,100619.34
2022-12-08T17:04:29.716Z,100622.38
2022-12-08T17:06:46.424Z,100627.00
2022-12-08T17:09:14.243Z,100626.59
2022-12-08T17:11:44.070Z,100619.63
2022-12-08T17:14:12.595Z,100625.75
2022-12-08T17:16:40.592Z,100621.88
2022-12-08T17:19:08.431Z,100623.44
2022-12-08T17:21:36.813Z,100623.84
2022-12-08T17:24:04.873Z,100622.34
2022-12-08T17:26:32.694Z,100620.81
2022-12-08T17:29:02.593Z,100620.09
2022-12-08T17:31:32.249Z,100616.28
2022-12-08T17:34:00.672Z,100614.84
2022-12-08T17:36:28.473Z,100617.63
2022-12-08T17:38:56.673Z,100617.34
2022-12-08T17:41:24.436Z,100617.78
2022-12-08T17:43:52.645Z,100619.44
2022-12-08T17:46:23.010Z,100619.88
2022-12-08T17:48:50.895Z,100620.69
2022-12-08T17:51:18.744Z,100612.63
2022-12-08T17:53:48.880Z,100618.75
2022-12-08T17:56:20.782Z,100612.53
2022-12-08T17:58:54.284Z,100611.78
2022-12-08T18:01:24.313Z,100611.81
2022-12-08T18:04:01.919Z,100615.25
2022-12-08T18:06:31.363Z,100612.16
2022-12-08T18:09:00.844Z,100613.78
2022-12-08T18:11:30.142Z,100618.47
2022-12-08T18:13:58.603Z,100608.56
2022-12-08T18:16:28.654Z,100615.13
2022-12-08T18:18:56.494Z,100608.19
2022-12-08T18:21:24.280Z,100618.25
2022-12-08T18:23:52.155Z,100617.81
2022-12-08T18:26:20.846Z,100614.31
2022-12-08T18:28:48.602Z,100605.78
2022-12-08T18:31:18.981Z,100605.38
2022-12-08T18:33:49.220Z,100609.97
2022-12-08T18:36:18.864Z,100601.13
2022-12-08T18:38:47.302Z,100605.13
2022-12-08T18:41:17.782Z,100602.53
2022-12-08T18:43:45.893Z,100606.47
2022-12-08T18:46:15.532Z,100609.72
2022-12-08T18:48:45.946Z,100619.44
2022-12-08T18:51:16.621Z,100626.75
2022-12-08T18:53:45.173Z,100626.44
2022-12-08T18:56:22.139Z,100623.38
2022-12-08T18:58:49.912Z,100621.00
2022-12-08T19:01:17.989Z,100629.81
2022-12-08T19:04:12.103Z,100629.88
2022-12-08T19:06:37.754Z,100632.94
2022-12-08T19:09:05.577Z,100631.00
2022-12-08T19:11:33.347Z,100627.06
2022-12-08T19:14:01.128Z,100628.13
2022-12-08T19:16:29.044Z,100623.84
2022-12-08T19:18:57.071Z,100637.28
2022-12-08T19:21:24.995Z,100636.09
2022-12-08T19:23:55.881Z,100636.53
2022-12-08T19:26:23.716Z,100633.47
2022-12-08T19:28:51.576Z,100628.03
2022-12-08T19:31:19.484Z,100635.41
2022-12-08T19:33:47.329Z,100629.94
2022-12-08T19:36:17.065Z,100630.72
2022-12-08T19:39:01.475Z,100636.84
2022-12-08T19:41:48.754Z,100636.00
2022-12-08T19:44:38.511Z,100637.88
2022-12-08T19:47:06.394Z,100644.75
2022-12-08T19:49:34.286Z,100645.94
2022-12-08T19:52:02.079Z,100638.22
2022-12-08T19:54:29.844Z,100642.81
2022-12-08T19:56:58.945Z,100640.84
2022-12-08T19:59:27.101Z,100640.00
2022-12-08T20:01:55.774Z,100638.81
2022-12-08T20:04:24.841Z,100641.44
2022-12-08T20:06:53.955Z,100646.97
2022-12-08T20:09:22.596Z,100645.41
2022-12-08T20:11:50.908Z,100648.50
2022-12-08T20:14:20.373Z,100648.91
2022-12-08T20:16:48.311Z,100656.19
2022-12-08T20:19:16.099Z,100650.84
2022-12-08T20:21:43.860Z,100649.66
2022-12-08T20:24:11.868Z,100648.00
2022-12-08T20:26:39.700Z,100647.94
2022-12-08T20:29:07.548Z,100645.59
2022-12-08T20:31:36.729Z,100654.34
2022-12-08T20:34:04.673Z,100646.19
2022-12-08T20:36:32.439Z,100653.41
2022-12-08T20:39:00.330Z,100651.16
2022-12-08T20:41:28.171Z,100650.41
2022-12-08T20:43:55.967Z,100660.44
2022-12-08T20:46:23.897Z,100660.44
2022-12-08T20:48:53.063Z,100670.41
2022-12-08T20:51:21.128Z,100668.16
2022-12-08T20:53:48.993Z,100662.03
2022-12-08T20:56:18.918Z,100668.09
2022-12-08T20:58:47.057Z,100665.38
2022-12-08T21:01:18.199Z,100660.44
2022-12-08T21:03:47.090Z,100668.47
2022-12-08T21:06:17.218Z,100664.63
2022-12-08T21:08:59.312Z,100662.09
2022-12-08T21:11:29.013Z,100669.03
2022-12-08T21:13:57.023Z,100674.84
2022-12-08T21:16:24.873Z,100673.19
2022-12-08T21:18:52.979Z,100674.22
2022-12-08T21:21:22.350Z,100671.50
2022-12-08T21:23:50.472Z,100674.38
2022-12-08T21:26:21.695Z,100675.31
2022-12-08T21:28:49.531Z,100680.41
2022-12-08T21:31:21.585Z,100675.47
2022-12-08T21:33:50.205Z,100670.00
2022-12-08T21:36:20.718Z,100671.81
2022-12-08T21:38:50.376Z,100667.91
2022-12-08T21:41:41.713Z,100670.59
2022-12-08T21:44:12.232Z,100673.63
2022-12-08T21:46:40.282Z,100675.91
2022-12-08T21:49:08.650Z,100675.88
2022-12-08T21:51:41.449Z,100673.09
2022-12-08T21:54:18.302Z,100676.81
2022-12-08T21:56:47.711Z,100673.63
2022-12-08T21:59:16.156Z,100671.41
2022-12-08T22:01:44.514Z,100679.66
2022-12-08T22:04:13.217Z,100677.66
2022-12-08T22:06:41.220Z,100679.97
2022-12-08T22:09:11.767Z,100681.44
2022-12-08T22:11:39.915Z,100682.94
2022-12-08T22:14:12.564Z,100678.69
2022-12-08T22:16:42.975Z,100684.22
2022-12-08T22:19:11.106Z,100682.97
2022-12-08T22:21:39.165Z,100685.63
2022-12-08T22:24:07.472Z,100682.94
2022-12-08T22:26:36.845Z,100688.72
2022-12-08T22:29:04.868Z,100693.34
2022-12-08T22:31:33.015Z,100693.34
2022-12-08T22:34:01.141Z,100694.78
2022-12-08T22:36:29.828Z,100686.94
2022-12-08T22:38:58.039Z,100679.22
2022-12-08T22:41:25.863Z,100684.31
2022-12-08T22:43:55.208Z,100676.63
2022-12-08T22:46:25.649Z,100676.88
2022-12-08T22:48:54.667Z,100667.19
2022-12-08T22:51:22.575Z,100672.50
2022-12-08T22:53:50.493Z,100668.31
2022-12-08T22:56:19.679Z,100659.88
2022-12-08T22:58:47.825Z,100667.31
2022-12-08T23:01:26.149Z,100664.88
2022-12-08T23:03:54.259Z,100665.31
2022-12-08T23:06:22.568Z,100665.00
2022-12-08T23:08:51.051Z,100665.81
2022-12-08T23:11:19.668Z,100660.09
2022-12-08T23:13:48.140Z,100668.59
2022-12-08T23:16:16.338Z,100667.03
2022-12-08T23:18:47.064Z,100670.94
2022-12-08T23:21:17.735Z,100667.97
2022-12-08T23:23:45.830Z,100663.34
2022-12-08T23:26:17.983Z,100661.84
2022-12-08T23:28:46.152Z,100670.09
2022-12-08T23:31:14.390Z,100675.50
2022-12-08T23:33:42.725Z,100665.81
2022-12-08T23:36:12.966Z,100661.53
2022-12-08T23:38:40.704Z,100659.22
2022-12-08T23:41:09.727Z,100663.41
2022-12-08T23:43:37.847Z,100659.53
2022-12-08T23:46:05.729Z,100660.28
2022-12-08T23:48:34.973Z,100660.16
2022-12-08T23:51:02.947Z,100656.19
2022-12-08T23:53:33.146Z,100661.66
2022-12-08T23:56:01.796Z,100656.34
2022-12-08T23:58:31.276Z,100653.31
